sensor_id;sensor_type;location;lat;lon;timestamp;pressure;altitude;pressure_sealevel;temperature
19666;BMP180;9980;51.020;7.772;2022-08-24T00:01:46;97779.00;;;22.50
19666;BMP180;9980;51.020;7.772;2022-08-24T00:04:13;97768.00;;;22.50
19666;BMP180;9980;51.020;7.772;2022-08-24T00:06:43;97776.00;;;22.40
19666;BMP180;9980;51.020;7.772;2022-08-24T00:09:10;97770.00;;;22.40
19666;BMP180;9980;51.020;7.772;2022-08-24T00:11:37;97773.00;;;22.30
19666;BMP180;9980;51.020;7.772;2022-08-24T00:14:07;97772.00;;;22.30
19666;BMP180;9980;51.020;7.772;2022-08-24T00:16:34;97776.00;;;22.30
19666;BMP180;9980;51.020;7.772;2022-08-24T00:19:02;97788.00;;;22.20
19666;BMP180;9980;51.020;7.772;2022-08-24T00:21:29;97776.00;;;22.20
19666;BMP180;9980;51.020;7.772;2022-08-24T00:23:56;97775.00;;;22.10
19666;BMP180;9980;51.020;7.772;2022-08-24T00:26:27;97766.00;;;22.10
19666;BMP180;9980;51.020;7.772;2022-08-24T00:28:56;97768.00;;;22.10
19666;BMP180;9980;51.020;7.772;2022-08-24T00:31:25;97765.00;;;22.00
19666;BMP180;9980;51.020;7.772;2022-08-24T00:33:53;97769.00;;;22.00
19666;BMP180;9980;51.020;7.772;2022-08-24T00:36:21;97772.00;;;21.90
19666;BMP180;9980;51.020;7.772;2022-08-24T00:38:48;97776.00;;;21.90
19666;BMP180;9980;51.020;7.772;2022-08-24T00:41:17;97773.00;;;21.90
19666;BMP180;9980;51.020;7.772;2022-08-24T00:44:01;97771.00;;;21.80
19666;BMP180;9980;51.020;7.772;2022-08-24T00:46:58;97776.00;;;21.70
19666;BMP180;9980;51.020;7.772;2022-08-24T00:49:40;97786.00;;;21.60
19666;BMP180;9980;51.020;7.772;2022-08-24T00:52:17;97773.00;;;21.60
19666;BMP180;9980;51.020;7.772;2022-08-24T00:54:52;97772.00;;;21.60
19666;BMP180;9980;51.020;7.772;2022-08-24T00:57:26;97777.00;;;21.50
19666;BMP180;9980;51.020;7.772;2022-08-24T01:00:15;97781.00;;;21.50
19666;BMP180;9980;51.020;7.772;2022-08-24T01:02:48;97779.00;;;21.40
19666;BMP180;9980;51.020;7.772;2022-08-24T01:05:17;97773.00;;;21.40
19666;BMP180;9980;51.020;7.772;2022-08-24T01:07:46;97782.00;;;21.40
19666;BMP180;9980;51.020;7.772;2022-08-24T01:10:22;97766.00;;;21.30
19666;BMP180;9980;51.020;7.772;2022-08-24T01:12:56;97777.00;;;21.30
19666;BMP180;9980;51.020;7.772;2022-08-24T01:15:31;97783.00;;;21.20
19666;BMP180;9980;51.020;7.772;2022-08-24T01:18:00;97778.00;;;21.20
19666;BMP180;9980;51.020;7.772;2022-08-24T01:21:02;97776.00;;;21.10
19666;BMP180;9980;51.020;7.772;2022-08-24T01:23:58;97777.00;;;21.10
19666;BMP180;9980;51.020;7.772;2022-08-24T01:26:33;97786.00;;;21.10
19666;BMP180;9980;51.020;7.772;2022-08-24T01:29:19;97769.00;;;21.00
19666;BMP180;9980;51.020;7.772;2022-08-24T01:31:50;97778.00;;;21.00
19666;BMP180;9980;51.020;7.772;2022-08-24T01:34:17;97766.00;;;21.00
19666;BMP180;9980;51.020;7.772;2022-08-24T01:36:48;97775.00;;;20.90
19666;BMP180;9980;51.020;7.772;2022-08-24T01:39:28;97775.00;;;20.90
19666;BMP180;9980;51.020;7.772;2022-08-24T01:41:57;97781.00;;;20.80
19666;BMP180;9980;51.020;7.772;2022-08-24T01:44:28;97772.00;;;20.80
19666;BMP180;9980;51.020;7.772;2022-08-24T01:46:56;97782.00;;;20.80
19666;BMP180;9980;51.020;7.772;2022-08-24T01:49:29;97780.00;;;20.70
19666;BMP180;9980;51.020;7.772;2022-08-24T01:51:58;97773.00;;;20.70
19666;BMP180;9980;51.020;7.772;2022-08-24T01:54:26;97775.00;;;20.70
19666;BMP180;9980;51.020;7.772;2022-08-24T01:56:53;97769.00;;;20.60
19666;BMP180;9980;51.020;7.772;2022-08-24T01:59:20;97778.00;;;20.60
19666;BMP180;9980;51.020;7.772;2022-08-24T02:01:54;97780.00;;;20.60
19666;BMP180;9980;51.020;7.772;2022-08-24T02:04:22;97780.00;;;20.50
19666;BMP180;9980;51.020;7.772;2022-08-24T02:06:49;97782.00;;;20.50
19666;BMP180;9980;51.020;7.772;2022-08-24T02:09:17;97785.00;;;20.50
19666;BMP180;9980;51.020;7.772;2022-08-24T02:11:44;97787.00;;;20.40
19666;BMP180;9980;51.020;7.772;2022-08-24T02:14:12;97783.00;;;20.40
19666;BMP180;9980;51.020;7.772;2022-08-24T02:16:41;97782.00;;;20.40
19666;BMP180;9980;51.020;7.772;2022-08-24T02:19:08;97787.00;;;20.30
19666;BMP180;9980;51.020;7.772;2022-08-24T02:21:36;97779.00;;;20.30
19666;BMP180;9980;51.020;7.772;2022-08-24T02:24:06;97795.00;;;20.30
19666;BMP180;9980;51.020;7.772;2022-08-24T02:26:33;97789.00;;;20.20
19666;BMP180;9980;51.020;7.772;2022-08-24T02:29:00;97797.00;;;20.20
19666;BMP180;9980;51.020;7.772;2022-08-24T02:31:31;97802.00;;;20.20
19666;BMP180;9980;51.020;7.772;2022-08-24T02:33:59;97785.00;;;20.10
19666;BMP180;9980;51.020;7.772;2022-08-24T02:36:26;97805.00;;;20.10
19666;BMP180;9980;51.020;7.772;2022-08-24T02:38:56;97794.00;;;20.10
19666;BMP180;9980;51.020;7.772;2022-08-24T02:41:24;97800.00;;;20.10
19666;BMP180;9980;51.020;7.772;2022-08-24T02:43:55;97787.00;;;20.00
19666;BMP180;9980;51.020;7.772;2022-08-24T02:46:26;97788.00;;;20.00
19666;BMP180;9980;51.020;7.772;2022-08-24T02:48:54;97782.00;;;20.00
19666;BMP180;9980;51.020;7.772;2022-08-24T02:51:44;97777.00;;;19.90
19666;BMP180;9980;51.020;7.772;2022-08-24T02:54:16;97788.00;;;19.90
19666;BMP180;9980;51.020;7.772;2022-08-24T02:56:47;97802.00;;;19.90
19666;BMP180;9980;51.020;7.772;2022-08-24T02:59:15;97797.00;;;19.80
19666;BMP180;9980;51.020;7.772;2022-08-24T03:01:43;97800.00;;;19.80
19666;BMP180;9980;51.020;7.772;2022-08-24T03:04:13;97800.00;;;19.80
19666;BMP180;9980;51.020;7.772;2022-08-24T03:06:41;97791.00;;;19.80
19666;BMP180;9980;51.020;7.772;2022-08-24T03:09:08;97801.00;;;19.70
19666;BMP180;9980;51.020;7.772;2022-08-24T03:11:35;97788.00;;;19.70
19666;BMP180;9980;51.020;7.772;2022-08-24T03:14:04;97819.00;;;19.70
19666;BMP180;9980;51.020;7.772;2022-08-24T03:16:32;97802.00;;;19.60
19666;BMP180;9980;51.020;7.772;2022-08-24T03:19:00;97793.00;;;19.60
19666;BMP180;9980;51.020;7.772;2022-08-24T03:21:31;97797.00;;;19.60
19666;BMP180;9980;51.020;7.772;2022-08-24T03:23:59;97803.00;;;19.50
19666;BMP180;9980;51.020;7.772;2022-08-24T03:26:26;97790.00;;;19.50
19666;BMP180;9980;51.020;7.772;2022-08-24T03:28:54;97800.00;;;19.50
19666;BMP180;9980;51.020;7.772;2022-08-24T03:31:21;97789.00;;;19.50
19666;BMP180;9980;51.020;7.772;2022-08-24T03:33:49;97792.00;;;19.40
19666;BMP180;9980;51.020;7.772;2022-08-24T03:36:17;97793.00;;;19.40
19666;BMP180;9980;51.020;7.772;2022-08-24T03:38:44;97798.00;;;19.40
19666;BMP180;9980;51.020;7.772;2022-08-24T03:41:11;97782.00;;;19.30
19666;BMP180;9980;51.020;7.772;2022-08-24T03:43:39;97797.00;;;19.30
19666;BMP180;9980;51.020;7.772;2022-08-24T03:46:27;97791.00;;;19.20
19666;BMP180;9980;51.020;7.772;2022-08-24T03:48:57;97795.00;;;19.20
19666;BMP180;9980;51.020;7.772;2022-08-24T03:51:27;97796.00;;;19.20
19666;BMP180;9980;51.020;7.772;2022-08-24T03:53:56;97797.00;;;19.20
19666;BMP180;9980;51.020;7.772;2022-08-24T03:56:27;97793.00;;;19.10
19666;BMP180;9980;51.020;7.772;2022-08-24T03:58:55;97799.00;;;19.10
19666;BMP180;9980;51.020;7.772;2022-08-24T04:01:25;97801.00;;;19.10
19666;BMP180;9980;51.020;7.772;2022-08-24T04:03:53;97797.00;;;19.10
19666;BMP180;9980;51.020;7.772;2022-08-24T04:06:25;97797.00;;;19.00
19666;BMP180;9980;51.020;7.772;2022-08-24T04:08:53;97790.00;;;19.00
19666;BMP180;9980;51.020;7.772;2022-08-24T04:11:24;97791.00;;;19.00
19666;BMP180;9980;51.020;7.772;2022-08-24T04:13:55;97811.00;;;18.90
19666;BMP180;9980;51.020;7.772;2022-08-24T04:16:24;97802.00;;;18.90
19666;BMP180;9980;51.020;7.772;2022-08-24T04:19:01;97808.00;;;18.90
19666;BMP180;9980;51.020;7.772;2022-08-24T04:21:33;97792.00;;;18.90
19666;BMP180;9980;51.020;7.772;2022-08-24T04:24:06;97784.00;;;18.80
19666;BMP180;9980;51.020;7.772;2022-08-24T04:26:37;97806.00;;;18.80
19666;BMP180;9980;51.020;7.772;2022-08-24T04:29:15;97799.00;;;18.80
19666;BMP180;9980;51.020;7.772;2022-08-24T04:31:51;97802.00;;;18.80
19666;BMP180;9980;51.020;7.772;2022-08-24T04:34:20;97803.00;;;18.70
19666;BMP180;9980;51.020;7.772;2022-08-24T04:36:47;97804.00;;;18.70
19666;BMP180;9980;51.020;7.772;2022-08-24T04:39:14;97799.00;;;18.70
19666;BMP180;9980;51.020;7.772;2022-08-24T04:42:00;97818.00;;;18.70
19666;BMP180;9980;51.020;7.772;2022-08-24T04:44:34;97810.00;;;18.60
19666;BMP180;9980;51.020;7.772;2022-08-24T04:47:03;97802.00;;;18.60
19666;BMP180;9980;51.020;7.772;2022-08-24T04:49:30;97817.00;;;18.60
19666;BMP180;9980;51.020;7.772;2022-08-24T04:51:57;97811.00;;;18.60
19666;BMP180;9980;51.020;7.772;2022-08-24T04:54:24;97812.00;;;18.60
19666;BMP180;9980;51.020;7.772;2022-08-24T04:57:13;97825.00;;;18.50
19666;BMP180;9980;51.020;7.772;2022-08-24T04:59:45;97823.00;;;18.50
19666;BMP180;9980;51.020;7.772;2022-08-24T05:02:13;97817.00;;;18.50
19666;BMP180;9980;51.020;7.772;2022-08-24T05:04:40;97823.00;;;18.50
19666;BMP180;9980;51.020;7.772;2022-08-24T05:07:07;97822.00;;;18.50
19666;BMP180;9980;51.020;7.772;2022-08-24T05:09:34;97821.00;;;18.60
19666;BMP180;9980;51.020;7.772;2022-08-24T05:12:01;97822.00;;;18.60
19666;BMP180;9980;51.020;7.772;2022-08-24T05:14:33;97825.00;;;18.70
19666;BMP180;9980;51.020;7.772;2022-08-24T05:17:00;97825.00;;;18.70
19666;BMP180;9980;51.020;7.772;2022-08-24T05:19:29;97832.00;;;18.70
19666;BMP180;9980;51.020;7.772;2022-08-24T05:21:56;97831.00;;;18.80
19666;BMP180;9980;51.020;7.772;2022-08-24T05:24:24;97827.00;;;18.80
19666;BMP180;9980;51.020;7.772;2022-08-24T05:26:51;97813.00;;;18.80
19666;BMP180;9980;51.020;7.772;2022-08-24T05:29:19;97829.00;;;18.80
19666;BMP180;9980;51.020;7.772;2022-08-24T05:31:48;97834.00;;;18.80
19666;BMP180;9980;51.020;7.772;2022-08-24T05:34:16;97832.00;;;18.90
19666;BMP180;9980;51.020;7.772;2022-08-24T05:36:44;97824.00;;;18.90
19666;BMP180;9980;51.020;7.772;2022-08-24T05:39:24;97827.00;;;18.90
19666;BMP180;9980;51.020;7.772;2022-08-24T05:41:54;97828.00;;;18.90
19666;BMP180;9980;51.020;7.772;2022-08-24T05:44:25;97828.00;;;19.00
19666;BMP180;9980;51.020;7.772;2022-08-24T05:46:59;97829.00;;;19.00
19666;BMP180;9980;51.020;7.772;2022-08-24T05:49:29;97820.00;;;19.10
19666;BMP180;9980;51.020;7.772;2022-08-24T05:51:57;97845.00;;;19.10
19666;BMP180;9980;51.020;7.772;2022-08-24T05:54:24;97837.00;;;19.10
19666;BMP180;9980;51.020;7.772;2022-08-24T05:57:01;97844.00;;;19.20
19666;BMP180;9980;51.020;7.772;2022-08-24T05:59:46;97839.00;;;19.30
19666;BMP180;9980;51.020;7.772;2022-08-24T06:02:17;97844.00;;;19.30
19666;BMP180;9980;51.020;7.772;2022-08-24T06:04:45;97838.00;;;19.40
19666;BMP180;9980;51.020;7.772;2022-08-24T06:07:13;97835.00;;;19.50
19666;BMP180;9980;51.020;7.772;2022-08-24T06:09:44;97844.00;;;19.50
19666;BMP180;9980;51.020;7.772;2022-08-24T06:12:12;97845.00;;;19.60
19666;BMP180;9980;51.020;7.772;2022-08-24T06:14:45;97840.00;;;19.70
19666;BMP180;9980;51.020;7.772;2022-08-24T06:17:16;97844.00;;;19.80
19666;BMP180;9980;51.020;7.772;2022-08-24T06:19:43;97841.00;;;19.80
19666;BMP180;9980;51.020;7.772;2022-08-24T06:22:10;97838.00;;;19.90
19666;BMP180;9980;51.020;7.772;2022-08-24T06:24:38;97847.00;;;20.00
19666;BMP180;9980;51.020;7.772;2022-08-24T06:27:26;97844.00;;;20.10
19666;BMP180;9980;51.020;7.772;2022-08-24T06:30:05;97845.00;;;20.20
19666;BMP180;9980;51.020;7.772;2022-08-24T06:32:57;97839.00;;;20.30
19666;BMP180;9980;51.020;7.772;2022-08-24T06:35:35;97850.00;;;20.50
19666;BMP180;9980;51.020;7.772;2022-08-24T06:38:02;97845.00;;;20.60
19666;BMP180;9980;51.020;7.772;2022-08-24T06:40:31;97844.00;;;20.70
19666;BMP180;9980;51.020;7.772;2022-08-24T06:43:01;97837.00;;;20.80
19666;BMP180;9980;51.020;7.772;2022-08-24T06:45:59;97857.00;;;21.00
19666;BMP180;9980;51.020;7.772;2022-08-24T06:48:30;97854.00;;;21.10
19666;BMP180;9980;51.020;7.772;2022-08-24T06:50:59;97844.00;;;21.20
19666;BMP180;9980;51.020;7.772;2022-08-24T06:53:27;97854.00;;;21.40
19666;BMP180;9980;51.020;7.772;2022-08-24T06:55:57;97861.00;;;21.50
19666;BMP180;9980;51.020;7.772;2022-08-24T06:58:27;97846.00;;;21.60
19666;BMP180;9980;51.020;7.772;2022-08-24T07:01:17;97844.00;;;21.80
19666;BMP180;9980;51.020;7.772;2022-08-24T07:03:45;97843.00;;;22.00
19666;BMP180;9980;51.020;7.772;2022-08-24T07:06:35;97847.00;;;22.10
19666;BMP180;9980;51.020;7.772;2022-08-24T07:09:04;97844.00;;;22.30
19666;BMP180;9980;51.020;7.772;2022-08-24T07:11:31;97838.00;;;22.50
19666;BMP180;9980;51.020;7.772;2022-08-24T07:14:01;97859.00;;;22.60
19666;BMP180;9980;51.020;7.772;2022-08-24T07:16:28;97847.00;;;22.80
19666;BMP180;9980;51.020;7.772;2022-08-24T07:19:01;97854.00;;;23.00
19666;BMP180;9980;51.020;7.772;2022-08-24T07:21:30;97844.00;;;23.20
19666;BMP180;9980;51.020;7.772;2022-08-24T07:23:59;97850.00;;;23.30
19666;BMP180;9980;51.020;7.772;2022-08-24T07:26:32;97861.00;;;23.50
19666;BMP180;9980;51.020;7.772;2022-08-24T07:29:11;97863.00;;;23.70
19666;BMP180;9980;51.020;7.772;2022-08-24T07:32:01;97860.00;;;23.90
19666;BMP180;9980;51.020;7.772;2022-08-24T07:34:34;97857.00;;;24.10
19666;BMP180;9980;51.020;7.772;2022-08-24T07:37:03;97855.00;;;24.30
19666;BMP180;9980;51.020;7.772;2022-08-24T07:39:31;97864.00;;;24.40
19666;BMP180;9980;51.020;7.772;2022-08-24T07:41:58;97859.00;;;24.60
19666;BMP180;9980;51.020;7.772;2022-08-24T07:44:40;97863.00;;;24.80
19666;BMP180;9980;51.020;7.772;2022-08-24T07:47:08;97855.00;;;24.90
19666;BMP180;9980;51.020;7.772;2022-08-24T07:49:55;97858.00;;;25.10
19666;BMP180;9980;51.020;7.772;2022-08-24T07:52:23;97857.00;;;25.30
19666;BMP180;9980;51.020;7.772;2022-08-24T07:54:50;97856.00;;;25.40
19666;BMP180;9980;51.020;7.772;2022-08-24T07:57:18;97871.00;;;25.60
19666;BMP180;9980;51.020;7.772;2022-08-24T07:59:45;97864.00;;;25.80
19666;BMP180;9980;51.020;7.772;2022-08-24T08:02:13;97858.00;;;25.90
19666;BMP180;9980;51.020;7.772;2022-08-24T08:04:46;97863.00;;;26.10
19666;BMP180;9980;51.020;7.772;2022-08-24T08:07:13;97884.00;;;26.20
19666;BMP180;9980;51.020;7.772;2022-08-24T08:09:40;97870.00;;;26.40
19666;BMP180;9980;51.020;7.772;2022-08-24T08:12:09;97879.00;;;26.50
19666;BMP180;9980;51.020;7.772;2022-08-24T08:14:44;97882.00;;;26.70
19666;BMP180;9980;51.020;7.772;2022-08-24T08:17:11;97891.00;;;26.90
19666;BMP180;9980;51.020;7.772;2022-08-24T08:19:40;97886.00;;;27.00
19666;BMP180;9980;51.020;7.772;2022-08-24T08:22:09;97889.00;;;27.20
19666;BMP180;9980;51.020;7.772;2022-08-24T08:25:18;97888.00;;;27.30
19666;BMP180;9980;51.020;7.772;2022-08-24T08:27:45;97877.00;;;27.50
19666;BMP180;9980;51.020;7.772;2022-08-24T08:30:12;97880.00;;;27.70
19666;BMP180;9980;51.020;7.772;2022-08-24T08:32:41;97881.00;;;27.80
19666;BMP180;9980;51.020;7.772;2022-08-24T08:35:09;97884.00;;;27.90
19666;BMP180;9980;51.020;7.772;2022-08-24T08:37:36;97886.00;;;28.10
19666;BMP180;9980;51.020;7.772;2022-08-24T08:40:09;97879.00;;;28.20
19666;BMP180;9980;51.020;7.772;2022-08-24T08:43:00;97864.00;;;28.30
19666;BMP180;9980;51.020;7.772;2022-08-24T08:46:02;97881.00;;;28.50
19666;BMP180;9980;51.020;7.772;2022-08-24T08:49:33;97886.00;;;28.60
19666;BMP180;9980;51.020;7.772;2022-08-24T08:55:32;97885.00;;;29.00
19666;BMP180;9980;51.020;7.772;2022-08-24T08:59:02;97890.00;;;29.10
19666;BMP180;9980;51.020;7.772;2022-08-24T09:02:23;97882.00;;;29.30
19666;BMP180;9980;51.020;7.772;2022-08-24T09:08:25;97884.00;;;29.60
19666;BMP180;9980;51.020;7.772;2022-08-24T09:26:26;97879.00;;;30.40
19666;BMP180;9980;51.020;7.772;2022-08-24T09:29:14;97885.00;;;30.50
19666;BMP180;9980;51.020;7.772;2022-08-24T09:32:46;97880.00;;;30.70
19666;BMP180;9980;51.020;7.772;2022-08-24T09:35:17;97870.00;;;30.90
19666;BMP180;9980;51.020;7.772;2022-08-24T09:38:22;97874.00;;;31.00
19666;BMP180;9980;51.020;7.772;2022-08-24T09:50:31;97866.00;;;31.50
19666;BMP180;9980;51.020;7.772;2022-08-24T10:00:00;97866.00;;;31.90
19666;BMP180;9980;51.020;7.772;2022-08-24T10:03:05;97858.00;;;32.00
19666;BMP180;9980;51.020;7.772;2022-08-24T10:12:18;97847.00;;;32.30
19666;BMP180;9980;51.020;7.772;2022-08-24T10:17:41;97846.00;;;32.50
19666;BMP180;9980;51.020;7.772;2022-08-24T10:20:45;97859.00;;;32.70
19666;BMP180;9980;51.020;7.772;2022-08-24T10:26:22;97841.00;;;32.90
19666;BMP180;9980;51.020;7.772;2022-08-24T10:44:56;97831.00;;;33.50
19666;BMP180;9980;51.020;7.772;2022-08-24T10:47:34;97818.00;;;33.50
19666;BMP180;9980;51.020;7.772;2022-08-24T10:53:34;97834.00;;;33.50
19666;BMP180;9980;51.020;7.772;2022-08-24T10:56:17;97829.00;;;33.50
19666;BMP180;9980;51.020;7.772;2022-08-24T11:01:30;97817.00;;;33.70
19666;BMP180;9980;51.020;7.772;2022-08-24T11:04:08;97813.00;;;33.80
19666;BMP180;9980;51.020;7.772;2022-08-24T11:07:22;97822.00;;;33.80
19666;BMP180;9980;51.020;7.772;2022-08-24T11:12:35;97822.00;;;33.90
19666;BMP180;9980;51.020;7.772;2022-08-24T11:15:24;97816.00;;;34.00
19666;BMP180;9980;51.020;7.772;2022-08-24T11:20:31;97814.00;;;34.10
19666;BMP180;9980;51.020;7.772;2022-08-24T11:23:07;97821.00;;;34.10
19666;BMP180;9980;51.020;7.772;2022-08-24T11:25:52;97812.00;;;34.20
19666;BMP180;9980;51.020;7.772;2022-08-24T11:28:31;97813.00;;;34.30
19666;BMP180;9980;51.020;7.772;2022-08-24T11:31:00;97819.00;;;34.30
19666;BMP180;9980;51.020;7.772;2022-08-24T11:33:46;97814.00;;;34.30
19666;BMP180;9980;51.020;7.772;2022-08-24T11:36:22;97817.00;;;34.30
19666;BMP180;9980;51.020;7.772;2022-08-24T11:39:14;97820.00;;;34.30
19666;BMP180;9980;51.020;7.772;2022-08-24T11:45:29;97810.00;;;34.30
19666;BMP180;9980;51.020;7.772;2022-08-24T11:48:11;97818.00;;;34.30
19666;BMP180;9980;51.020;7.772;2022-08-24T11:51:04;97818.00;;;34.30
19666;BMP180;9980;51.020;7.772;2022-08-24T11:59:23;97802.00;;;34.30
19666;BMP180;9980;51.020;7.772;2022-08-24T12:02:07;97808.00;;;34.40
19666;BMP180;9980;51.020;7.772;2022-08-24T12:05:22;97814.00;;;34.40
19666;BMP180;9980;51.020;7.772;2022-08-24T12:08:26;97801.00;;;34.60
19666;BMP180;9980;51.020;7.772;2022-08-24T12:14:19;97802.00;;;34.80
19666;BMP180;9980;51.020;7.772;2022-08-24T12:17:17;97807.00;;;35.00
19666;BMP180;9980;51.020;7.772;2022-08-24T12:20:03;97802.00;;;35.10
19666;BMP180;9980;51.020;7.772;2022-08-24T12:22:31;97801.00;;;35.30
19666;BMP180;9980;51.020;7.772;2022-08-24T12:25:03;97798.00;;;35.40
19666;BMP180;9980;51.020;7.772;2022-08-24T12:27:52;97787.00;;;35.50
19666;BMP180;9980;51.020;7.772;2022-08-24T12:30:21;97792.00;;;35.50
19666;BMP180;9980;51.020;7.772;2022-08-24T12:32:58;97805.00;;;35.60
19666;BMP180;9980;51.020;7.772;2022-08-24T12:35:52;97783.00;;;35.60
19666;BMP180;9980;51.020;7.772;2022-08-24T12:38:37;97798.00;;;35.70
19666;BMP180;9980;51.020;7.772;2022-08-24T12:41:19;97799.00;;;35.70
19666;BMP180;9980;51.020;7.772;2022-08-24T12:43:57;97794.00;;;35.80
19666;BMP180;9980;51.020;7.772;2022-08-24T12:46:26;97799.00;;;35.90
19666;BMP180;9980;51.020;7.772;2022-08-24T12:49:20;97790.00;;;35.90
19666;BMP180;9980;51.020;7.772;2022-08-24T12:52:24;97789.00;;;35.90
19666;BMP180;9980;51.020;7.772;2022-08-24T12:58:21;97787.00;;;36.20
19666;BMP180;9980;51.020;7.772;2022-08-24T13:01:06;97798.00;;;36.30
19666;BMP180;9980;51.020;7.772;2022-08-24T13:03:39;97784.00;;;36.30
19666;BMP180;9980;51.020;7.772;2022-08-24T13:06:24;97802.00;;;36.40
19666;BMP180;9980;51.020;7.772;2022-08-24T13:09:13;97789.00;;;36.50
19666;BMP180;9980;51.020;7.772;2022-08-24T13:11:41;97780.00;;;36.60
19666;BMP180;9980;51.020;7.772;2022-08-24T13:14:20;97780.00;;;36.60
19666;BMP180;9980;51.020;7.772;2022-08-24T13:25:21;97782.00;;;36.70
19666;BMP180;9980;51.020;7.772;2022-08-24T13:28:05;97779.00;;;36.70
19666;BMP180;9980;51.020;7.772;2022-08-24T13:31:13;97787.00;;;36.80
19666;BMP180;9980;51.020;7.772;2022-08-24T13:33:54;97789.00;;;36.90
19666;BMP180;9980;51.020;7.772;2022-08-24T13:36:37;97775.00;;;36.90
19666;BMP180;9980;51.020;7.772;2022-08-24T13:48:14;97772.00;;;37.10
19666;BMP180;9980;51.020;7.772;2022-08-24T13:54:24;97758.00;;;37.10
19666;BMP180;9980;51.020;7.772;2022-08-24T13:57:25;97768.00;;;37.10
19666;BMP180;9980;51.020;7.772;2022-08-24T14:06:23;97774.00;;;37.10
19666;BMP180;9980;51.020;7.772;2022-08-24T14:09:14;97773.00;;;36.90
19666;BMP180;9980;51.020;7.772;2022-08-24T14:12:21;97759.00;;;36.80
19666;BMP180;9980;51.020;7.772;2022-08-24T14:18:21;97768.00;;;36.60
19666;BMP180;9980;51.020;7.772;2022-08-24T14:21:12;97766.00;;;36.50
19666;BMP180;9980;51.020;7.772;2022-08-24T14:24:03;97752.00;;;36.40
19666;BMP180;9980;51.020;7.772;2022-08-24T14:35:03;97755.00;;;36.10
19666;BMP180;9980;51.020;7.772;2022-08-24T14:37:57;97762.00;;;36.10
19666;BMP180;9980;51.020;7.772;2022-08-24T14:41:02;97751.00;;;36.00
19666;BMP180;9980;51.020;7.772;2022-08-24T14:52:52;97745.00;;;35.80
19666;BMP180;9980;51.020;7.772;2022-08-24T14:55:41;97739.00;;;35.70
19666;BMP180;9980;51.020;7.772;2022-08-24T14:58:24;97742.00;;;35.70
19666;BMP180;9980;51.020;7.772;2022-08-24T15:06:53;97748.00;;;35.60
19666;BMP180;9980;51.020;7.772;2022-08-24T15:09:32;97743.00;;;35.60
19666;BMP180;9980;51.020;7.772;2022-08-24T15:12:31;97741.00;;;35.60
19666;BMP180;9980;51.020;7.772;2022-08-24T15:15:14;97725.00;;;35.60
19666;BMP180;9980;51.020;7.772;2022-08-24T15:21:05;97733.00;;;35.60
19666;BMP180;9980;51.020;7.772;2022-08-24T15:29:55;97720.00;;;35.50
19666;BMP180;9980;51.020;7.772;2022-08-24T15:32:42;97726.00;;;35.40
19666;BMP180;9980;51.020;7.772;2022-08-24T15:38:24;97734.00;;;35.30
19666;BMP180;9980;51.020;7.772;2022-08-24T15:41:11;97727.00;;;35.30
19666;BMP180;9980;51.020;7.772;2022-08-24T15:43:51;97736.00;;;35.30
19666;BMP180;9980;51.020;7.772;2022-08-24T15:46:27;97728.00;;;35.20
19666;BMP180;9980;51.020;7.772;2022-08-24T15:49:06;97727.00;;;35.20
19666;BMP180;9980;51.020;7.772;2022-08-24T15:51:57;97732.00;;;35.10
19666;BMP180;9980;51.020;7.772;2022-08-24T15:54:34;97722.00;;;35.10
19666;BMP180;9980;51.020;7.772;2022-08-24T15:57:27;97724.00;;;35.00
19666;BMP180;9980;51.020;7.772;2022-08-24T16:00:18;97718.00;;;35.00
19666;BMP180;9980;51.020;7.772;2022-08-24T16:03:47;97723.00;;;34.90
19666;BMP180;9980;51.020;7.772;2022-08-24T16:09:11;97711.00;;;34.90
19666;BMP180;9980;51.020;7.772;2022-08-24T16:11:48;97722.00;;;34.90
19666;BMP180;9980;51.020;7.772;2022-08-24T16:14:39;97732.00;;;34.80
19666;BMP180;9980;51.020;7.772;2022-08-24T16:17:44;97732.00;;;34.80
19666;BMP180;9980;51.020;7.772;2022-08-24T16:23:22;97730.00;;;34.70
19666;BMP180;9980;51.020;7.772;2022-08-24T16:26:23;97736.00;;;34.60
19666;BMP180;9980;51.020;7.772;2022-08-24T16:28:52;97726.00;;;34.60
19666;BMP180;9980;51.020;7.772;2022-08-24T16:31:50;97730.00;;;34.50
19666;BMP180;9980;51.020;7.772;2022-08-24T16:34:28;97723.00;;;34.50
19666;BMP180;9980;51.020;7.772;2022-08-24T16:36:56;97726.00;;;34.40
19666;BMP180;9980;51.020;7.772;2022-08-24T16:39:24;97730.00;;;34.40
19666;BMP180;9980;51.020;7.772;2022-08-24T16:42:03;97734.00;;;34.30
19666;BMP180;9980;51.020;7.772;2022-08-24T16:44:39;97729.00;;;34.30
19666;BMP180;9980;51.020;7.772;2022-08-24T16:47:08;97724.00;;;34.20
19666;BMP180;9980;51.020;7.772;2022-08-24T16:49:36;97732.00;;;34.20
19666;BMP180;9980;51.020;7.772;2022-08-24T16:52:05;97729.00;;;34.20
19666;BMP180;9980;51.020;7.772;2022-08-24T16:54:32;97737.00;;;34.10
19666;BMP180;9980;51.020;7.772;2022-08-24T16:57:15;97730.00;;;34.10
19666;BMP180;9980;51.020;7.772;2022-08-24T16:59:46;97734.00;;;34.00
19666;BMP180;9980;51.020;7.772;2022-08-24T17:02:16;97732.00;;;34.00
19666;BMP180;9980;51.020;7.772;2022-08-24T17:04:44;97726.00;;;34.00
19666;BMP180;9980;51.020;7.772;2022-08-24T17:07:15;97720.00;;;33.90
19666;BMP180;9980;51.020;7.772;2022-08-24T17:09:45;97726.00;;;33.90
19666;BMP180;9980;51.020;7.772;2022-08-24T17:12:13;97732.00;;;33.90
19666;BMP180;9980;51.020;7.772;2022-08-24T17:14:40;97713.00;;;33.90
19666;BMP180;9980;51.020;7.772;2022-08-24T17:17:13;97729.00;;;33.90
19666;BMP180;9980;51.020;7.772;2022-08-24T17:19:43;97732.00;;;33.90
19666;BMP180;9980;51.020;7.772;2022-08-24T17:22:10;97730.00;;;33.90
19666;BMP180;9980;51.020;7.772;2022-08-24T17:24:43;97733.00;;;33.80
19666;BMP180;9980;51.020;7.772;2022-08-24T17:27:12;97734.00;;;33.80
19666;BMP180;9980;51.020;7.772;2022-08-24T17:29:42;97723.00;;;33.80
19666;BMP180;9980;51.020;7.772;2022-08-24T17:32:10;97731.00;;;33.80
19666;BMP180;9980;51.020;7.772;2022-08-24T17:34:41;97725.00;;;33.70
19666;BMP180;9980;51.020;7.772;2022-08-24T17:37:09;97735.00;;;33.70
19666;BMP180;9980;51.020;7.772;2022-08-24T17:39:37;97739.00;;;33.70
19666;BMP180;9980;51.020;7.772;2022-08-24T17:42:04;97737.00;;;33.60
19666;BMP180;9980;51.020;7.772;2022-08-24T17:44:52;97750.00;;;33.60
19666;BMP180;9980;51.020;7.772;2022-08-24T17:47:19;97739.00;;;33.50
19666;BMP180;9980;51.020;7.772;2022-08-24T17:49:45;97744.00;;;33.40
19666;BMP180;9980;51.020;7.772;2022-08-24T17:52:12;97740.00;;;33.30
19666;BMP180;9980;51.020;7.772;2022-08-24T17:54:40;97748.00;;;33.30
19666;BMP180;9980;51.020;7.772;2022-08-24T17:57:11;97751.00;;;33.10
19666;BMP180;9980;51.020;7.772;2022-08-24T17:59:39;97755.00;;;33.10